Time;durP1;ratioP1;P1;durP2;ratioP2;P2;SDS_P1;SDS_P2;PMS_P1;PMS_P2;Temp;Humidity;BMP_temperature;BMP_pressure;BME280_temperature;BME280_humidity;BME280_pressure;Samples;Min_cycle;Max_cycle;Signal;HPM_P1;HPM_P2
2023/05/04 00:01:02;;;;;;;10.02;6.63;;;13.00;99.90;;;;;;4991913;28;20057;-82
2023/05/04 00:03:28;;;;;;;10.30;7.07;;;13.00;99.90;;;;;;4991827;28;20423;-81
2023/05/04 00:05:53;;;;;;;9.02;7.05;;;13.00;99.90;;;;;;4991565;28;20466;-82
2023/05/04 00:08:19;;;;;;;10.95;7.85;;;13.00;99.90;;;;;;5007831;28;20103;-82
2023/05/04 00:10:44;;;;;;;10.20;7.32;;;12.90;99.90;;;;;;5013607;28;20125;-82
2023/05/04 00:13:10;;;;;;;8.73;7.60;;;12.90;99.90;;;;;;5013774;28;20053;-82
2023/05/04 00:15:36;;;;;;;12.32;7.63;;;12.90;99.90;;;;;;5014481;28;20034;-81
2023/05/04 00:18:01;;;;;;;14.02;7.50;;;12.90;99.90;;;;;;5009494;28;20018;-81
2023/05/04 00:20:27;;;;;;;7.90;7.13;;;12.90;99.90;;;;;;4995137;28;20038;-81
2023/05/04 00:22:52;;;;;;;8.50;7.72;;;12.90;99.90;;;;;;4995750;28;20105;-82
2023/05/04 00:25:18;;;;;;;10.20;7.38;;;13.10;99.90;;;;;;4995775;28;20041;-82
2023/05/04 00:27:44;;;;;;;10.70;7.28;;;12.90;99.90;;;;;;4996155;28;20097;-82
2023/05/04 00:30:10;;;;;;;11.88;7.95;;;12.90;99.90;;;;;;5015515;28;20025;-82
2023/05/04 00:32:35;;;;;;;7.50;6.72;;;12.80;99.90;;;;;;5014610;28;20078;-81
2023/05/04 00:35:01;;;;;;;14.30;7.82;;;12.90;99.90;;;;;;5003603;28;20117;-82
2023/05/04 00:37:26;;;;;;;12.25;7.78;;;12.80;99.90;;;;;;5001962;28;20124;-81
2023/05/04 00:39:52;;;;;;;11.30;7.80;;;12.80;99.90;;;;;;4995042;28;20033;-81
2023/05/04 00:42:17;;;;;;;10.23;7.68;;;12.80;99.90;;;;;;4994160;28;20054;-81
2023/05/04 00:44:43;;;;;;;12.18;7.53;;;12.80;99.90;;;;;;4995237;28;20359;-82
2023/05/04 00:47:10;;;;;;;10.15;8.52;;;12.80;99.90;;;;;;5008563;28;20339;-82
2023/05/04 00:49:35;;;;;;;7.90;7.20;;;12.80;99.90;;;;;;5013810;28;20469;-81
2023/05/04 00:52:03;;;;;;;7.35;6.75;;;12.70;99.90;;;;;;5015098;28;20034;-81
2023/05/04 00:54:29;;;;;;;11.27;7.13;;;12.70;99.90;;;;;;5013329;28;20022;-82
2023/05/04 00:56:55;;;;;;;7.97;7.20;;;12.70;99.90;;;;;;4995988;28;20041;-82
2023/05/04 00:59:20;;;;;;;8.63;7.72;;;12.70;99.90;;;;;;5000830;28;20037;-82
2023/05/04 01:01:46;;;;;;;7.43;6.60;;;12.70;99.90;;;;;;4995016;28;20371;-83
2023/05/04 01:04:12;;;;;;;9.18;7.90;;;12.70;99.90;;;;;;4994462;28;20026;-82
2023/05/04 01:06:57;;;;;;;9.10;7.85;;;12.70;99.90;;;;;;4994756;28;20023;-82
2023/05/04 01:09:30;;;;;;;14.75;7.80;;;12.60;99.90;;;;;;5011590;28;20145;-81
2023/05/04 01:12:33;;;;;;;8.35;7.55;;;12.70;99.90;;;;;;5014355;28;20029;-82
2023/05/04 01:14:59;;;;;;;7.60;7.07;;;12.70;99.90;;;;;;5011845;28;20486;-82
2023/05/04 01:17:25;;;;;;;8.75;7.78;;;12.60;99.90;;;;;;5012023;28;20130;-82
2023/05/04 01:19:52;;;;;;;8.48;7.65;;;12.60;99.90;;;;;;5011073;28;20054;-82
2023/05/04 01:22:19;;;;;;;8.82;7.80;;;12.60;99.90;;;;;;5014438;28;20088;-83
2023/05/04 01:24:44;;;;;;;11.18;7.65;;;12.50;99.90;;;;;;4997799;28;20057;-82
2023/05/04 01:27:17;;;;;;;9.32;7.63;;;12.50;99.90;;;;;;4994747;28;20058;-82
2023/05/04 01:30:45;;;;;;;8.07;7.30;;;12.50;99.90;;;;;;4994332;28;20049;-82
2023/05/04 01:33:11;;;;;;;8.38;7.60;;;12.50;99.90;;;;;;4961665;28;20034;-82
2023/05/04 01:35:37;;;;;;;8.48;7.57;;;12.50;99.90;;;;;;4994263;28;20030;-81
2023/05/04 01:38:02;;;;;;;8.40;7.57;;;12.50;99.90;;;;;;4995254;28;20064;-82
2023/05/04 01:40:28;;;;;;;14.38;7.25;;;12.50;99.90;;;;;;4997821;28;20036;-82
2023/05/04 01:42:54;;;;;;;11.50;7.38;;;12.40;99.90;;;;;;5009062;28;20446;-82
2023/05/04 01:45:20;;;;;;;8.85;7.95;;;12.40;99.90;;;;;;4993748;28;20026;-82
2023/05/04 01:47:45;;;;;;;10.65;8.07;;;12.40;99.90;;;;;;4993442;28;20034;-82
2023/05/04 01:50:11;;;;;;;8.25;7.63;;;12.40;99.90;;;;;;4994062;28;20026;-82
2023/05/04 01:52:37;;;;;;;11.30;7.82;;;12.40;99.90;;;;;;4993175;28;20061;-81
2023/05/04 01:55:02;;;;;;;9.20;7.55;;;12.40;99.90;;;;;;5010222;28;20064;-82
2023/05/04 01:57:28;;;;;;;10.73;7.80;;;12.30;99.90;;;;;;5013352;28;20042;-82
2023/05/04 01:59:53;;;;;;;14.13;8.05;;;12.40;99.90;;;;;;5012746;28;20026;-82
2023/05/04 02:02:19;;;;;;;7.72;7.13;;;12.30;99.90;;;;;;5012316;28;20034;-81
2023/05/04 02:04:45;;;;;;;13.07;7.80;;;12.30;99.90;;;;;;5003007;28;20029;-81
2023/05/04 02:07:11;;;;;;;9.07;8.18;;;12.30;99.90;;;;;;5005891;28;20018;-82
2023/05/04 02:09:37;;;;;;;8.35;7.47;;;12.30;99.90;;;;;;5013351;28;20087;-82
2023/05/04 02:12:03;;;;;;;11.68;7.90;;;12.30;99.90;;;;;;5011194;28;20061;-82
2023/05/04 02:14:28;;;;;;;10.70;7.90;;;12.30;99.90;;;;;;4992898;28;20522;-82
2023/05/04 02:16:55;;;;;;;11.32;8.10;;;12.30;99.90;;;;;;4993192;28;20088;-82
2023/05/04 02:19:20;;;;;;;8.18;7.20;;;12.30;99.90;;;;;;4993523;28;20374;-82
2023/05/04 02:21:46;;;;;;;12.50;7.82;;;12.30;99.90;;;;;;5005516;28;20033;-82
2023/05/04 02:24:12;;;;;;;9.02;7.97;;;12.30;99.90;;;;;;5005953;28;20429;-82
2023/05/04 02:26:38;;;;;;;9.25;7.55;;;12.30;99.90;;;;;;5008339;28;20090;-82
2023/05/04 02:29:04;;;;;;;8.88;7.65;;;12.30;99.90;;;;;;5008638;28;20153;-82
2023/05/04 02:31:31;;;;;;;9.57;8.60;;;12.20;99.90;;;;;;4993547;28;20061;-80
2023/05/04 02:33:56;;;;;;;12.55;7.57;;;12.30;99.90;;;;;;4992659;28;20026;-81
2023/05/04 02:36:22;;;;;;;9.15;7.95;;;12.20;99.90;;;;;;4993542;28;20038;-81
2023/05/04 02:38:48;;;;;;;9.80;8.75;;;12.20;99.90;;;;;;4993308;28;20022;-80
2023/05/04 02:41:13;;;;;;;9.32;8.30;;;12.20;99.90;;;;;;5011098;28;20052;-81
2023/05/04 02:43:39;;;;;;;9.43;8.23;;;12.20;99.90;;;;;;5009716;28;20081;-80
2023/05/04 02:46:04;;;;;;;7.95;7.25;;;12.20;99.90;;;;;;5005325;28;20027;-80
2023/05/04 02:48:30;;;;;;;10.75;7.70;;;12.40;99.90;;;;;;5005006;28;20030;-81
2023/05/04 02:50:55;;;;;;;13.38;7.93;;;12.20;99.90;;;;;;4999485;28;20438;-81
2023/05/04 02:53:21;;;;;;;9.50;7.63;;;12.20;99.90;;;;;;4992418;28;20501;-82
2023/05/04 02:55:47;;;;;;;8.63;7.72;;;12.60;99.90;;;;;;4991906;28;20034;-80
2023/05/04 02:58:12;;;;;;;16.40;8.05;;;12.10;99.90;;;;;;4997138;28;20124;-81
2023/05/04 03:00:38;;;;;;;8.43;7.47;;;12.10;99.90;;;;;;5012434;28;20045;-80
2023/05/04 03:03:04;;;;;;;8.85;8.00;;;12.10;99.90;;;;;;5011632;28;20022;-81
2023/05/04 03:05:29;;;;;;;11.23;8.15;;;12.10;99.90;;;;;;4998534;28;20026;-81
2023/05/04 03:07:55;;;;;;;12.27;7.60;;;12.10;99.90;;;;;;5008146;28;20026;-82
2023/05/04 03:10:20;;;;;;;11.00;7.53;;;12.10;99.90;;;;;;4993650;28;20135;-82
2023/05/04 03:12:46;;;;;;;8.90;7.60;;;12.00;99.90;;;;;;4992735;28;20022;-81
2023/05/04 03:15:12;;;;;;;11.40;8.52;;;12.10;99.90;;;;;;4992715;28;20053;-81
2023/05/04 03:17:37;;;;;;;8.77;7.20;;;12.40;99.90;;;;;;5001846;28;20057;-81
2023/05/04 03:20:03;;;;;;;9.10;7.95;;;12.10;99.90;;;;;;5012634;28;20105;-81
2023/05/04 03:22:29;;;;;;;9.02;7.10;;;12.00;99.90;;;;;;5012269;28;20382;-81
2023/05/04 03:24:54;;;;;;;11.07;7.45;;;12.00;99.90;;;;;;5007985;28;20033;-81
2023/05/04 03:27:20;;;;;;;13.90;8.18;;;11.90;99.90;;;;;;4998564;28;20026;-80
2023/05/04 03:29:45;;;;;;;9.40;7.82;;;12.00;99.90;;;;;;4995629;28;20085;-81
2023/05/04 03:32:12;;;;;;;10.18;7.25;;;12.00;99.90;;;;;;4992225;28;20030;-81
2023/05/04 03:34:37;;;;;;;19.08;7.65;;;11.90;99.90;;;;;;4992709;28;20029;-81
2023/05/04 03:37:03;;;;;;;7.93;7.07;;;11.90;99.90;;;;;;4991914;28;20035;-81
2023/05/04 03:39:29;;;;;;;10.27;7.30;;;12.00;99.90;;;;;;5010535;28;20030;-81
2023/05/04 03:41:54;;;;;;;11.07;7.30;;;11.90;99.90;;;;;;5012346;28;20088;-81
2023/05/04 03:44:20;;;;;;;13.20;8.00;;;11.90;99.90;;;;;;5015690;28;20018;-81
2023/05/04 03:46:45;;;;;;;8.65;7.03;;;11.90;99.90;;;;;;5016035;28;20112;-81
2023/05/04 03:49:13;;;;;;;8.18;7.47;;;11.90;99.90;;;;;;5014228;28;20030;-81
2023/05/04 03:51:38;;;;;;;9.25;7.68;;;11.90;99.90;;;;;;4999397;28;20022;-81
2023/05/04 03:54:04;;;;;;;13.32;7.78;;;11.80;99.90;;;;;;5015427;28;20109;-81
2023/05/04 03:56:30;;;;;;;12.25;7.20;;;11.80;99.90;;;;;;5000780;28;20035;-81
2023/05/04 03:58:55;;;;;;;8.18;7.15;;;11.80;99.90;;;;;;4995571;28;20524;-81
2023/05/04 04:01:21;;;;;;;9.75;7.03;;;11.80;99.90;;;;;;4996124;28;20541;-81
2023/05/04 04:03:47;;;;;;;7.47;6.55;;;11.80;99.90;;;;;;4995889;28;20026;-81
2023/05/04 04:06:12;;;;;;;12.45;7.13;;;11.80;99.90;;;;;;5010624;28;20751;-81
2023/05/04 04:08:38;;;;;;;9.10;6.80;;;11.80;99.90;;;;;;5015480;28;20041;-81
2023/05/04 04:11:03;;;;;;;7.75;6.90;;;11.80;99.90;;;;;;5007173;28;20030;-82
2023/05/04 04:13:29;;;;;;;7.53;6.80;;;11.80;99.90;;;;;;5001933;28;20076;-82
2023/05/04 04:15:55;;;;;;;8.38;7.22;;;11.70;99.90;;;;;;5008448;28;20424;-81
2023/05/04 04:18:22;;;;;;;8.27;6.95;;;11.70;99.90;;;;;;4996031;28;20025;-81
2023/05/04 04:20:47;;;;;;;7.63;6.80;;;11.70;99.90;;;;;;4997227;28;20054;-82
2023/05/04 04:23:17;;;;;;;7.18;6.50;;;11.70;99.90;;;;;;5015271;28;20061;-82
2023/05/04 04:25:42;;;;;;;16.85;7.65;;;11.70;99.90;;;;;;5014706;28;20080;-81
2023/05/04 04:28:08;;;;;;;10.93;7.20;;;11.60;99.90;;;;;;5014504;28;20030;-82
2023/05/04 04:30:33;;;;;;;8.32;7.18;;;11.70;99.90;;;;;;5012349;28;20025;-81
2023/05/04 04:32:59;;;;;;;10.48;7.15;;;11.70;99.90;;;;;;5002364;28;20113;-81
2023/05/04 04:35:26;;;;;;;9.63;7.00;;;11.60;99.90;;;;;;5010252;28;20018;-81
2023/05/04 04:37:51;;;;;;;8.55;7.55;;;11.70;99.90;;;;;;5013191;28;20100;-80
2023/05/04 04:40:17;;;;;;;13.32;7.63;;;11.60;99.90;;;;;;4994563;28;20022;-80
2023/05/04 04:42:42;;;;;;;8.45;6.85;;;11.70;99.90;;;;;;4994752;28;20042;-81
2023/05/04 04:45:08;;;;;;;8.45;6.93;;;11.70;99.90;;;;;;4995490;28;20050;-80
2023/05/04 04:47:34;;;;;;;10.77;6.57;;;11.70;99.90;;;;;;4994690;28;20037;-81
2023/05/04 04:50:00;;;;;;;9.55;6.97;;;11.60;99.90;;;;;;4995793;28;20018;-81
2023/05/04 04:52:26;;;;;;;12.75;6.88;;;11.60;99.90;;;;;;5011378;28;20481;-81
2023/05/04 04:54:51;;;;;;;7.15;6.45;;;11.70;99.90;;;;;;5001129;28;20034;-81
2023/05/04 04:57:17;;;;;;;8.52;7.32;;;11.60;99.90;;;;;;5007646;28;20034;-81
2023/05/04 04:59:42;;;;;;;9.75;7.32;;;11.70;99.90;;;;;;4994851;28;20022;-81
2023/05/04 05:02:08;;;;;;;7.70;6.80;;;11.60;99.90;;;;;;4994583;28;20110;-81
2023/05/04 05:04:36;;;;;;;8.35;6.40;;;11.60;99.90;;;;;;4994775;28;20041;-81
2023/05/04 05:07:03;;;;;;;8.15;7.35;;;11.70;99.90;;;;;;4996453;28;20037;-81
2023/05/04 05:09:28;;;;;;;8.65;7.30;;;11.60;99.90;;;;;;5013813;28;20026;-82
2023/05/04 05:11:54;;;;;;;9.52;7.43;;;11.60;99.90;;;;;;5013721;28;20378;-81
2023/05/04 05:14:19;;;;;;;10.18;8.05;;;11.60;99.90;;;;;;5004481;28;20021;-80
2023/05/04 05:16:45;;;;;;;8.10;7.10;;;11.60;99.90;;;;;;5003927;28;20483;-81
2023/05/04 05:19:10;;;;;;;9.38;7.20;;;11.60;99.90;;;;;;4995822;28;20279;-81
2023/05/04 05:21:36;;;;;;;14.18;6.65;;;11.60;99.90;;;;;;4997512;28;20030;-81
2023/05/04 05:24:02;;;;;;;9.60;7.55;;;11.60;99.90;;;;;;5000800;28;20028;-81
2023/05/04 05:26:27;;;;;;;15.35;7.80;;;11.60;99.90;;;;;;4998231;28;20034;-82
2023/05/04 05:28:53;;;;;;;9.70;6.93;;;11.70;99.90;;;;;;5004780;28;20064;-81
2023/05/04 05:31:18;;;;;;;8.30;6.75;;;11.70;99.90;;;;;;5010298;28;20116;-81
2023/05/04 05:33:44;;;;;;;12.45;7.40;;;11.70;99.90;;;;;;5006111;28;20461;-82
2023/05/04 05:36:09;;;;;;;11.13;7.13;;;11.70;99.90;;;;;;5005160;28;20104;-80
2023/05/04 05:38:35;;;;;;;13.52;7.53;;;11.70;99.90;;;;;;5002035;28;20037;-82
2023/05/04 05:41:00;;;;;;;8.07;7.22;;;11.80;99.90;;;;;;5000872;28;20038;-81
2023/05/04 05:43:26;;;;;;;8.88;7.88;;;11.80;99.90;;;;;;5005276;28;20405;-81
2023/05/04 05:45:52;;;;;;;10.57;7.13;;;11.70;99.90;;;;;;5010440;28;20466;-81
2023/05/04 05:48:18;;;;;;;8.18;6.72;;;11.80;99.90;;;;;;5007839;28;20487;-82
2023/05/04 05:50:43;;;;;;;9.95;8.05;;;11.60;99.90;;;;;;4995599;28;20026;-82
2023/05/04 05:53:09;;;;;;;11.48;7.05;;;11.70;99.90;;;;;;5009898;28;20525;-81
2023/05/04 05:55:34;;;;;;;24.92;7.82;;;11.70;99.90;;;;;;5006687;28;20109;-82
2023/05/04 05:58:00;;;;;;;12.82;7.40;;;11.70;99.90;;;;;;5000831;28;20355;-81
2023/05/04 06:00:26;;;;;;;9.57;7.82;;;11.70;99.90;;;;;;4993538;28;20469;-81
2023/05/04 06:02:51;;;;;;;9.43;7.00;;;11.60;99.90;;;;;;4992411;28;20065;-81
2023/05/04 06:05:17;;;;;;;12.15;7.25;;;11.60;99.90;;;;;;4992000;28;20429;-81
2023/05/04 06:07:42;;;;;;;11.95;7.80;;;11.70;99.90;;;;;;4992740;28;20478;-81
2023/05/04 06:10:09;;;;;;;16.08;7.95;;;11.70;99.90;;;;;;4992599;28;20073;-81
2023/05/04 06:12:35;;;;;;;10.80;7.43;;;11.60;99.90;;;;;;4991888;28;20042;-81
2023/05/04 06:15:01;;;;;;;11.45;7.88;;;11.60;99.90;;;;;;4998201;28;20366;-81
2023/05/04 06:17:26;;;;;;;9.68;8.50;;;11.70;99.90;;;;;;5001724;28;20045;-81
2023/05/04 06:19:52;;;;;;;10.05;8.75;;;11.50;99.90;;;;;;5000033;28;20026;-80
2023/05/04 06:22:17;;;;;;;12.90;8.63;;;11.40;99.90;;;;;;4993127;28;20378;-81
2023/05/04 06:24:43;;;;;;;11.02;7.85;;;11.40;99.90;;;;;;4992691;28;20026;-81
2023/05/04 06:27:09;;;;;;;10.50;7.15;;;11.30;99.90;;;;;;4996251;28;20176;-81
2023/05/04 06:29:37;;;;;;;18.00;8.63;;;11.20;99.90;;;;;;5009328;28;20112;-81
2023/05/04 06:32:03;;;;;;;11.57;7.70;;;11.10;99.90;;;;;;5009919;28;20115;-82
2023/05/04 06:34:29;;;;;;;9.38;8.50;;;10.90;99.90;;;;;;5009538;28;20069;-80
2023/05/04 06:36:54;;;;;;;8.27;7.50;;;10.90;99.90;;;;;;5008270;28;20393;-81
2023/05/04 06:39:20;;;;;;;12.32;7.72;;;11.00;99.90;;;;;;5005732;28;20501;-83
2023/05/04 06:41:45;;;;;;;11.50;7.15;;;11.10;99.90;;;;;;5002293;28;20054;-82
2023/05/04 06:44:11;;;;;;;8.43;7.57;;;11.30;99.90;;;;;;4992265;28;20058;-82
2023/05/04 06:46:36;;;;;;;12.45;7.88;;;11.20;99.90;;;;;;4996396;28;20068;-82
2023/05/04 06:49:05;;;;;;;12.38;7.78;;;11.30;99.90;;;;;;5000002;28;20034;-82
2023/05/04 06:51:31;;;;;;;11.43;7.90;;;11.30;99.90;;;;;;5002108;28;20117;-83
2023/05/04 06:53:58;;;;;;;10.88;7.22;;;11.40;99.90;;;;;;4999647;28;20109;-82
2023/05/04 06:56:24;;;;;;;9.38;8.38;;;11.30;99.90;;;;;;5002792;28;20030;-82
2023/05/04 06:58:49;;;;;;;10.15;7.43;;;11.30;99.90;;;;;;5004036;28;20026;-81
2023/05/04 07:01:15;;;;;;;10.40;8.75;;;11.30;99.90;;;;;;5008103;28;20054;-82
2023/05/04 07:03:41;;;;;;;16.98;8.60;;;11.20;99.90;;;;;;4997404;28;20062;-81
2023/05/04 07:06:07;;;;;;;14.45;8.10;;;11.20;99.90;;;;;;4992916;28;20387;-82
2023/05/04 07:08:33;;;;;;;13.50;7.78;;;11.30;99.90;;;;;;4991588;28;20022;-81
2023/05/04 07:10:59;;;;;;;10.38;7.70;;;11.30;99.90;;;;;;4991275;28;20415;-83
2023/05/04 07:13:24;;;;;;;15.10;9.35;;;11.40;99.90;;;;;;4990710;28;20466;-81
2023/05/04 07:15:50;;;;;;;12.80;7.72;;;11.60;99.90;;;;;;4990191;28;20034;-82
2023/05/04 07:18:16;;;;;;;11.30;8.20;;;11.70;99.90;;;;;;4994739;28;20466;-83
2023/05/04 07:20:42;;;;;;;19.08;8.88;;;11.80;99.90;;;;;;5008874;28;20101;-82
2023/05/04 07:23:07;;;;;;;13.88;7.85;;;11.80;99.90;;;;;;5001717;28;20369;-84
2023/05/04 07:25:33;;;;;;;11.98;8.18;;;11.80;99.90;;;;;;4983003;28;20041;-82
2023/05/04 07:27:58;;;;;;;15.68;7.90;;;11.90;99.90;;;;;;4997001;28;20023;-83
2023/05/04 07:30:24;;;;;;;8.60;7.72;;;11.90;99.90;;;;;;4998367;28;20033;-82
2023/05/04 07:32:50;;;;;;;8.68;7.25;;;12.00;99.90;;;;;;5013119;28;20057;-83
2023/05/04 07:35:16;;;;;;;10.73;7.63;;;12.00;99.90;;;;;;5015929;28;20112;-81
2023/05/04 07:37:41;;;;;;;9.95;8.60;;;12.10;99.90;;;;;;5015190;28;20044;-81
2023/05/04 07:40:08;;;;;;;14.27;8.00;;;12.20;99.90;;;;;;5014373;28;20025;-83
2023/05/04 07:42:33;;;;;;;9.38;8.35;;;12.20;99.90;;;;;;5013728;28;20046;-82
2023/05/04 07:45:00;;;;;;;10.55;8.25;;;12.20;99.90;;;;;;5006060;28;20037;-83
2023/05/04 07:47:26;;;;;;;14.32;7.85;;;12.20;99.90;;;;;;5007319;28;20106;-82
2023/05/04 07:49:51;;;;;;;12.43;7.43;;;12.20;99.90;;;;;;5014408;28;20154;-83
2023/05/04 07:52:17;;;;;;;11.25;7.68;;;12.20;99.90;;;;;;5013698;28;20098;-82
2023/05/04 07:54:42;;;;;;;8.82;8.00;;;12.20;99.90;;;;;;5014395;28;20026;-82
2023/05/04 07:57:08;;;;;;;19.98;9.30;;;12.20;99.90;;;;;;5013589;28;20064;-82
2023/05/04 07:59:34;;;;;;;10.38;7.13;;;12.30;99.90;;;;;;5013948;28;20018;-80
2023/05/04 08:02:00;;;;;;;10.90;7.20;;;12.30;99.90;;;;;;5012764;28;20493;-82
2023/05/04 08:04:25;;;;;;;11.48;7.47;;;12.40;99.90;;;;;;5013338;28;20397;-82
2023/05/04 08:06:51;;;;;;;10.73;7.75;;;12.40;99.90;;;;;;5006179;28;20681;-82
2023/05/04 08:09:17;;;;;;;10.77;8.63;;;12.40;99.90;;;;;;5003859;28;20053;-82
2023/05/04 08:11:44;;;;;;;8.00;7.20;;;12.50;99.90;;;;;;4996055;28;20045;-82
2023/05/04 08:14:10;;;;;;;14.18;8.60;;;12.60;99.90;;;;;;4994059;28;20028;-81
2023/05/04 08:16:36;;;;;;;9.63;7.32;;;12.60;99.90;;;;;;4993444;28;20486;-82
2023/05/04 08:19:01;;;;;;;8.98;8.15;;;12.60;99.90;;;;;;4998099;28;20026;-83
2023/05/04 08:21:27;;;;;;;9.25;7.43;;;12.60;99.90;;;;;;5015570;28;20029;-82
2023/05/04 08:23:53;;;;;;;18.05;8.82;;;12.70;99.90;;;;;;5014320;28;20109;-82
2023/05/04 08:26:19;;;;;;;14.27;7.32;;;12.60;99.90;;;;;;5001466;28;20029;-82
2023/05/04 08:28:45;;;;;;;19.95;8.13;;;12.70;99.90;;;;;;5010712;28;20022;-82
2023/05/04 08:31:11;;;;;;;12.48;8.27;;;12.70;99.90;;;;;;4996836;28;20030;-81
2023/05/04 08:33:37;;;;;;;12.43;9.35;;;12.80;99.90;;;;;;4994631;28;20019;-82
2023/05/04 08:36:03;;;;;;;9.32;8.32;;;12.80;99.90;;;;;;4995488;28;20030;-81
2023/05/04 08:38:29;;;;;;;11.85;8.00;;;12.90;99.90;;;;;;5003115;28;20033;-79
2023/05/04 08:40:55;;;;;;;10.68;7.55;;;12.90;99.90;;;;;;5014008;28;20105;-79
2023/05/04 08:43:21;;;;;;;11.23;7.50;;;13.00;99.90;;;;;;5015621;28;20042;-80
2023/05/04 08:45:48;;;;;;;9.38;8.30;;;13.00;99.90;;;;;;5013358;28;20432;-81
2023/05/04 08:48:13;;;;;;;14.10;7.65;;;13.10;99.90;;;;;;5005940;28;20069;-83
2023/05/04 08:50:39;;;;;;;12.00;7.53;;;13.10;99.90;;;;;;5010322;28;20061;-83
2023/05/04 08:53:06;;;;;;;11.60;7.35;;;13.10;99.90;;;;;;5003955;28;20041;-83
2023/05/04 08:55:34;;;;;;;15.40;7.90;;;13.10;99.90;;;;;;5003329;28;20030;-82
2023/05/04 08:58:03;;;;;;;9.80;7.20;;;13.10;99.90;;;;;;5011508;28;20030;-83
2023/05/04 09:00:30;;;;;;;11.63;7.60;;;13.20;99.90;;;;;;5013827;28;20041;-82
2023/05/04 09:02:58;;;;;;;9.05;7.80;;;13.20;99.90;;;;;;5009796;28;20034;-82
2023/05/04 09:05:27;;;;;;;12.25;7.43;;;13.30;99.90;;;;;;4997804;28;20027;-82
2023/05/04 09:07:52;;;;;;;12.32;7.13;;;13.40;99.90;;;;;;5007696;28;20072;-83
2023/05/04 09:10:18;;;;;;;10.30;8.27;;;13.40;99.90;;;;;;5014689;28;20076;-83
2023/05/04 09:12:45;;;;;;;14.85;8.38;;;13.50;99.90;;;;;;5013483;28;20049;-83
2023/05/04 09:15:17;;;;;;;12.82;7.90;;;13.50;99.90;;;;;;4994356;28;20097;-83
2023/05/04 09:18:11;;;;;;;12.40;8.43;;;13.60;99.90;;;;;;4994168;28;20034;-83
2023/05/04 09:20:45;;;;;;;15.35;9.27;;;13.60;99.90;;;;;;4994260;28;20497;-82
2023/05/04 09:23:12;;;;;;;11.82;8.50;;;13.60;99.90;;;;;;5005629;28;20504;-82
2023/05/04 09:25:51;;;;;;;17.10;8.52;;;13.70;99.90;;;;;;5004824;28;20038;-83
2023/05/04 09:28:18;;;;;;;18.75;8.38;;;13.80;99.90;;;;;;5008641;28;20030;-81
2023/05/04 09:30:44;;;;;;;9.63;8.27;;;13.80;99.90;;;;;;5010783;28;20112;-83
2023/05/04 09:33:10;;;;;;;12.77;8.23;;;13.90;99.90;;;;;;5013993;28;20022;-83
2023/05/04 09:35:40;;;;;;;9.73;7.43;;;13.90;99.90;;;;;;4995269;28;20027;-81
2023/05/04 09:38:06;;;;;;;9.23;8.23;;;14.00;99.90;;;;;;4994644;28;20110;-82
2023/05/04 09:40:41;;;;;;;12.20;8.27;;;14.10;99.90;;;;;;4993948;28;20117;-80
2023/05/04 09:43:08;;;;;;;10.90;8.07;;;14.10;99.90;;;;;;4996149;28;20070;-79
2023/05/04 09:45:44;;;;;;;17.13;8.57;;;14.10;99.90;;;;;;4993916;28;20045;-79
2023/05/04 09:48:17;;;;;;;11.88;8.38;;;14.20;99.90;;;;;;4998547;28;20053;-79
2023/05/04 09:50:48;;;;;;;15.95;8.93;;;14.20;99.90;;;;;;5011217;28;20481;-80
2023/05/04 09:53:15;;;;;;;10.90;8.18;;;14.20;99.90;;;;;;5012084;28;20026;-80
2023/05/04 09:55:44;;;;;;;8.98;7.63;;;14.20;99.90;;;;;;5012868;28;20030;-78
2023/05/04 09:58:11;;;;;;;12.35;8.82;;;14.30;99.90;;;;;;5009347;28;20481;-79
2023/05/04 10:00:37;;;;;;;13.07;8.38;;;14.40;99.90;;;;;;5007021;28;20022;-79
2023/05/04 10:03:05;;;;;;;11.00;8.70;;;14.50;99.90;;;;;;5013787;28;20084;-80
2023/05/04 10:05:30;;;;;;;9.63;8.05;;;14.60;99.90;;;;;;5012824;28;20026;-79
2023/05/04 10:07:58;;;;;;;10.23;8.90;;;14.50;99.90;;;;;;5013071;28;20064;-81
2023/05/04 10:10:24;;;;;;;14.95;9.05;;;14.60;99.90;;;;;;5013424;28;20029;-83
2023/05/04 10:12:50;;;;;;;16.98;9.25;;;14.70;99.90;;;;;;5010160;28;20567;-82
2023/05/04 10:15:17;;;;;;;12.73;8.82;;;15.00;99.90;;;;;;5010180;28;20058;-82
2023/05/04 10:18:08;;;;;;;14.27;9.23;;;14.80;99.90;;;;;;5003219;28;20504;-81
2023/05/04 10:20:42;;;;;;;;;;;14.90;99.90;;;;;;5002069;28;20021;-82
2023/05/04 10:23:20;;;;;;;10.75;9.27;;;15.00;99.90;;;;;;5011359;28;19905;-83
2023/05/04 10:26:12;;;;;;;16.67;10.20;;;15.10;99.90;;;;;;5008828;28;20027;-81
2023/05/04 10:28:58;;;;;;;14.40;10.45;;;15.10;99.90;;;;;;5009488;28;20025;-84
2023/05/04 10:31:42;;;;;;;13.27;9.70;;;15.20;99.90;;;;;;5011749;28;20127;-83
2023/05/04 10:34:08;;;;;;;10.90;8.50;;;15.30;99.90;;;;;;4996297;28;20030;-81
2023/05/04 10:36:36;;;;;;;10.52;8.68;;;15.30;99.90;;;;;;5005884;28;20125;-83
2023/05/04 10:39:02;;;;;;;12.73;9.07;;;15.20;99.90;;;;;;4986191;28;20030;-83
2023/05/04 10:41:28;;;;;;;18.73;10.35;;;15.30;99.90;;;;;;5004984;28;20402;-84
2023/05/04 10:44:03;;;;;;;21.73;9.82;;;15.50;99.90;;;;;;5000139;28;20033;-84
2023/05/04 10:46:29;;;;;;;11.65;8.90;;;15.50;99.90;;;;;;5000456;28;20034;-81
2023/05/04 10:48:55;;;;;;;9.98;9.18;;;15.60;99.90;;;;;;4994904;28;20113;-83
2023/05/04 10:51:22;;;;;;;9.85;8.85;;;15.70;99.90;;;;;;4992622;28;20030;-83
2023/05/04 10:53:48;;;;;;;10.32;9.13;;;15.70;99.90;;;;;;4991568;28;20023;-84
2023/05/04 10:56:25;;;;;;;12.82;9.23;;;15.80;99.90;;;;;;5005572;28;20432;-84
2023/05/04 10:58:52;;;;;;;11.05;9.95;;;15.80;99.90;;;;;;5009548;28;20038;-85
2023/05/04 11:01:19;;;;;;;10.25;9.23;;;15.90;99.90;;;;;;5005560;28;20700;-84
2023/05/04 11:03:45;;;;;;;15.68;9.80;;;15.90;99.90;;;;;;5002003;28;20374;-83
2023/05/04 11:06:18;;;;;;;12.02;9.60;;;16.00;99.90;;;;;;4998879;28;20033;-84
2023/05/04 11:08:57;;;;;;;17.67;10.13;;;16.10;99.90;;;;;;4997765;28;20030;-83
2023/05/04 11:11:23;;;;;;;18.88;10.10;;;16.20;99.90;;;;;;5004794;28;20538;-83
2023/05/04 11:13:49;;;;;;;13.13;10.02;;;16.20;99.90;;;;;;5009253;28;20109;-84
2023/05/04 11:16:27;;;;;;;13.63;9.93;;;16.30;99.90;;;;;;4997656;28;20389;-83
2023/05/04 11:18:53;;;;;;;12.57;9.93;;;16.30;99.90;;;;;;5009885;28;20033;-83
2023/05/04 11:21:25;;;;;;;11.18;9.90;;;16.40;99.90;;;;;;4996701;28;20042;-83
2023/05/04 11:23:58;;;;;;;12.88;9.23;;;16.50;99.90;;;;;;5003323;28;20022;-82
2023/05/04 11:26:24;;;;;;;11.45;10.18;;;16.50;99.90;;;;;;4996111;28;20030;-83
2023/05/04 11:28:50;;;;;;;10.93;9.85;;;16.60;99.90;;;;;;4996952;28;20026;-83
2023/05/04 11:31:17;;;;;;;13.45;10.55;;;16.50;99.90;;;;;;5003897;28;20490;-83
2023/05/04 11:33:53;;;;;;;16.77;10.13;;;16.60;99.90;;;;;;4998172;28;20030;-85
2023/05/04 11:36:20;;;;;;;13.57;10.07;;;16.80;99.90;;;;;;4994395;28;20037;-85
2023/05/04 11:38:46;;;;;;;12.88;9.65;;;16.70;99.90;;;;;;5008603;28;20037;-85
2023/05/04 11:41:12;;;;;;;25.30;10.90;;;16.80;99.90;;;;;;5008737;28;20053;-85
2023/05/04 11:43:39;;;;;;;18.35;10.40;;;17.00;99.90;;;;;;5005515;28;20485;-85
2023/05/04 11:46:05;;;;;;;16.15;9.90;;;17.20;99.90;;;;;;5000619;28;20126;-85
2023/05/04 11:48:32;;;;;;;14.07;9.38;;;17.70;99.90;;;;;;5008155;28;20030;-85
2023/05/04 11:50:58;;;;;;;14.02;10.40;;;17.40;99.90;;;;;;4999183;28;20088;-85
2023/05/04 11:53:23;;;;;;;11.15;9.95;;;17.20;99.90;;;;;;4991424;28;20113;-85
2023/05/04 11:55:52;;;;;;;12.25;9.68;;;17.20;99.90;;;;;;5003629;28;20030;-86
2023/05/04 11:58:24;;;;;;;14.60;10.10;;;17.30;99.90;;;;;;5003899;28;20038;-84
2023/05/04 12:00:55;;;;;;;14.55;10.25;;;17.30;99.90;;;;;;5004147;28;20053;-85
2023/05/04 12:03:30;;;;;;;16.33;10.60;;;17.50;99.90;;;;;;5009167;28;20169;-86
2023/05/04 12:05:57;;;;;;;24.23;11.18;;;17.50;99.90;;;;;;5004604;28;20081;-85
2023/05/04 12:08:28;;;;;;;12.18;10.43;;;17.70;99.90;;;;;;4993223;28;20050;-86
2023/05/04 12:11:14;;;;;;;14.10;10.10;;;17.90;99.90;;;;;;4995127;28;20105;-88
2023/05/04 12:13:42;;;;;;;18.08;10.63;;;18.00;99.90;;;;;;4993997;28;20033;-86
2023/05/04 12:16:15;;;;;;;14.75;10.80;;;18.10;99.90;;;;;;4995362;28;20049;-82
2023/05/04 12:18:43;;;;;;;19.08;11.10;;;18.10;99.90;;;;;;4992899;28;20026;-81
2023/05/04 12:21:20;;;;;;;25.02;11.00;;;18.10;99.90;;;;;;4995061;28;20495;-85
2023/05/04 12:23:46;;;;;;;19.83;9.98;;;18.30;99.90;;;;;;4983548;28;20041;-85
2023/05/04 12:26:13;;;;;;;17.63;10.52;;;18.30;99.90;;;;;;5005362;28;20030;-85
2023/05/04 12:28:41;;;;;;;11.30;9.95;;;18.30;99.90;;;;;;5011464;28;20086;-85
2023/05/04 12:31:08;;;;;;;15.43;11.07;;;18.40;99.90;;;;;;4995287;28;20113;-84
2023/05/04 12:33:34;;;;;;;15.68;10.77;;;18.50;99.90;;;;;;4994349;28;20045;-85
2023/05/04 12:36:01;;;;;;;14.15;10.73;;;18.40;99.90;;;;;;5001118;28;20118;-85
2023/05/04 12:38:27;;;;;;;14.27;10.63;;;18.50;99.90;;;;;;5007804;28;20113;-85
2023/05/04 12:40:54;;;;;;;14.43;10.45;;;18.50;99.90;;;;;;5004866;28;20028;-86